V.a. San Pedro — WAW957 — position and weather

sailwx.info

Track history (hours):
 
Tides and Currents Weather Stations Pressure Air Temp Water Temp Dewpoint Dewpoint Depression Visibility Wind Speed Wind Dir Waves Ship Positions

V.a. San Pedro

Last reported at 2017-Sep-17 20:59 UTC. Time now 2017-Sep-19 16:47 UTC.
Position N 33°43' W 118°17'.

Length 10 m.

Type: Towing. MMSI: 338181878.

Date/timePositionNaut miles runAvg speedWind from/ knotsBaromVisibWave heightAir tempDewpointWater temp
2017-Sep-17 20:59N 33°43' W 118°17'0 0.0
2017-Sep-16 23:51N 33°43' W 118°17'2 4.2
2017-Sep-16 23:25N 33°42' W 118°15'2 0.9
2017-Sep-16 21:26N 33°43' W 118°17'1 1.6
2017-Sep-16 21:00N 33°44' W 118°17'1 1.1
2017-Sep-16 20:28N 33°43' W 118°16'3 5.6
2017-Sep-16 20:00N 33°42' W 118°14'0 0.8
2017-Sep-16 19:28N 33°42' W 118°14'2 0.1
2017-Sep-16 01:50N 33°42' W 118°17'1 0.5
2017-Sep-15 22:59N 33°43' W 118°17'0 0.0
2017-Sep-15 20:53N 33°43' W 118°17'0 0.0
2017-Sep-15 20:23N 33°43' W 118°17'0 0.0
2017-Sep-14 07:49N 33°43' W 118°17'0 0.0
2017-Sep-14 01:25N 33°43' W 118°17'0 0.0
2017-Sep-13 21:37N 33°43' W 118°17'0 0.0
2017-Sep-13 21:13N 33°43' W 118°17'0 0.0
2017-Sep-13 18:19N 33°43' W 118°17'0 0.0
2017-Sep-13 12:55N 33°43' W 118°17'0 0.0
2017-Sep-13 12:07N 33°43' W 118°17'0 0.0
2017-Sep-13 11:49N 33°43' W 118°17'0 0.0
2017-Sep-13 11:07N 33°43' W 118°17'0 0.0
2017-Sep-13 09:01N 33°43' W 118°17'0 0.0
2017-Sep-13 07:49N 33°43' W 118°17'0 0.0
2017-Sep-13 07:25N 33°43' W 118°17'0 0.0
2017-Sep-13 01:55N 33°43' W 118°17'0 0.0
2017-Sep-13 01:19N 33°43' W 118°17'0 0.0
2017-Sep-12 22:31N 33°43' W 118°17'0 0.0
2017-Sep-12 22:01N 33°43' W 118°17'0 0.0
2017-Sep-12 21:55N 33°43' W 118°17'0 0.0
2017-Sep-12 21:07N 33°43' W 118°17'0 0.0
2017-Sep-12 20:55N 33°43' W 118°17'0 0.0
2017-Sep-12 20:25N 33°43' W 118°17'0 0.0
2017-Sep-12 18:19N 33°43' W 118°17'0 0.0
2017-Sep-12 17:55N 33°43' W 118°17'0 0.0
2017-Sep-12 17:13N 33°43' W 118°17'0 0.0
2017-Sep-12 16:55N 33°43' W 118°17'0 0.0
2017-Sep-12 16:13N 33°43' W 118°17'0 0.0
2017-Sep-12 15:55N 33°43' W 118°17'0 0.0
2017-Sep-12 15:25N 33°43' W 118°17'0 0.0
2017-Sep-12 14:55N 33°43' W 118°17'0 0.0
2017-Sep-12 13:31N 33°43' W 118°17'0 0.0
2017-Sep-12 13:25N 33°43' W 118°17'0 0.0
2017-Sep-12 12:49N 33°43' W 118°17'0 0.0
2017-Sep-12 12:13N 33°43' W 118°17'0 0.0
2017-Sep-12 11:55N 33°43' W 118°17'0 0.0
2017-Sep-12 11:19N 33°43' W 118°17'0 0.0
2017-Sep-12 10:55N 33°43' W 118°17'0 0.0
2017-Sep-12 08:31N 33°43' W 118°17'0 0.0
2017-Sep-12 08:01N 33°43' W 118°17'0 0.0
2017-Sep-12 07:46N 33°43' W 118°17'0 0.0
2017-Sep-12 07:25N 33°43' W 118°17'0 0.0
2017-Sep-12 05:40N 33°43' W 118°17'0 0.0
2017-Sep-12 02:34N 33°43' W 118°17'0 0.0
2017-Sep-12 02:16N 33°43' W 118°17'0 0.0
2017-Sep-12 01:58N 33°43' W 118°17'0 0.0
2017-Sep-12 01:28N 33°43' W 118°17'0 0.0
2017-Sep-12 00:49N 33°43' W 118°17'0 0.0
2017-Sep-12 00:25N 33°43' W 118°17'0 0.0
2017-Sep-11 23:49N 33°43' W 118°17'0 0.0
2017-Sep-11 23:25N 33°43' W 118°17'0 0.0
2017-Sep-11 21:13N 33°43' W 118°17'0 0.0
2017-Sep-11 19:07N 33°43' W 118°17'0 0.0
2017-Sep-11 18:49N 33°43' W 118°17'0 0.0
2017-Sep-11 18:25N 33°43' W 118°17'0 0.0
2017-Sep-11 16:43N 33°43' W 118°17'0 0.0
2017-Sep-11 04:04N 33°43' W 118°17'0 0.0
2017-Sep-11 03:52N 33°43' W 118°17'1 1.5
2017-Sep-11 03:30N 33°43' W 118°16'3 6.1
2017-Sep-11 03:00N 33°46' W 118°15'1 2.4
2017-Sep-11 02:30N 33°45' W 118°16'2 5.0
2017-Sep-11 02:00N 33°43' W 118°16'1 1.1
2017-Sep-11 00:56N 33°43' W 118°17'0 0.0
2017-Sep-10 23:50N 33°43' W 118°17'0 0.0
2017-Sep-10 23:20N 33°43' W 118°17'0 0.0
2017-Sep-10 22:56N 33°43' W 118°17'1 1.7
2017-Sep-10 22:28N 33°43' W 118°16'1 1.8
2017-Sep-10 21:53N 33°44' W 118°17'0 0.6
2017-Sep-10 21:07N 33°43' W 118°17'0 0.0
2017-Sep-10 20:49N 33°43' W 118°17'0 0.0
2017-Sep-10 20:25N 33°43' W 118°17'0 0.0
2017-Sep-10 19:49N 33°43' W 118°17'0 0.0
2017-Sep-10 19:19N 33°43' W 118°17'0 0.0
2017-Sep-10 18:55N 33°43' W 118°17'0 0.0
2017-Sep-10 18:25N 33°43' W 118°17'0 0.0
2017-Sep-10 17:55N 33°43' W 118°17'0 0.0
2017-Sep-10 17:25N 33°43' W 118°17'0 0.0
2017-Sep-10 16:37N 33°43' W 118°17'0 0.0
2017-Sep-10 16:13N 33°43' W 118°17'0 0.0
2017-Sep-10 15:55N 33°43' W 118°17'0 0.0
2017-Sep-10 15:19N 33°43' W 118°17'0 0.0
2017-Sep-10 09:34N 33°43' W 118°17'0 0.0
2017-Sep-10 09:25N 33°43' W 118°17'0 0.0
2017-Sep-10 08:58N 33°43' W 118°17'0 0.0
2017-Sep-10 08:28N 33°43' W 118°17'0 0.0
2017-Sep-10 01:55N 33°43' W 118°17'0 0.0
2017-Sep-09 19:25N 33°43' W 118°17'0 0.9
2017-Sep-09 18:56N 33°43' W 118°16'2 5.4
2017-Sep-09 18:30N 33°46' W 118°16'0 0.2
2017-Sep-09 17:57N 33°45' W 118°16'0 0.0
2017-Sep-09 17:27N 33°45' W 118°16'1 2.7
2017-Sep-09 16:59N 33°44' W 118°17'1 0.1
2017-Sep-09 01:00N 33°43' W 118°17'0 0.0
2017-Sep-07 21:30N 33°43' W 118°17'  
Track history (hours):
 
Tides and Currents Weather Stations Pressure Air Temp Water Temp Dewpoint Dewpoint Depression Visibility Wind Speed Wind Dir Waves Ship Positions

V.a. San Pedro

Last reported at 2017-Sep-17 20:59 UTC. Time now 2017-Sep-19 16:47 UTC.
Position N 33°43' W 118°17'.

Length 10 m.

Type: Towing. MMSI: 338181878.

Date/timePositionNaut miles runAvg speedWind from/ knotsBaromVisibWave heightAir tempDewpointWater temp
2017-Sep-17 20:59N 33°43' W 118°17'0 0.0
2017-Sep-16 23:51N 33°43' W 118°17'2 4.2
2017-Sep-16 23:25N 33°42' W 118°15'2 0.9
2017-Sep-16 21:26N 33°43' W 118°17'1 1.6
2017-Sep-16 21:00N 33°44' W 118°17'1 1.1
2017-Sep-16 20:28N 33°43' W 118°16'3 5.6
2017-Sep-16 20:00N 33°42' W 118°14'0 0.8
2017-Sep-16 19:28N 33°42' W 118°14'2 0.1
2017-Sep-16 01:50N 33°42' W 118°17'1 0.5
2017-Sep-15 22:59N 33°43' W 118°17'0 0.0
2017-Sep-15 20:53N 33°43' W 118°17'0 0.0
2017-Sep-15 20:23N 33°43' W 118°17'0 0.0
2017-Sep-14 07:49N 33°43' W 118°17'0 0.0
2017-Sep-14 01:25N 33°43' W 118°17'0 0.0
2017-Sep-13 21:37N 33°43' W 118°17'0 0.0
2017-Sep-13 21:13N 33°43' W 118°17'0 0.0
2017-Sep-13 18:19N 33°43' W 118°17'0 0.0
2017-Sep-13 12:55N 33°43' W 118°17'0 0.0
2017-Sep-13 12:07N 33°43' W 118°17'0 0.0
2017-Sep-13 11:49N 33°43' W 118°17'0 0.0
2017-Sep-13 11:07N 33°43' W 118°17'0 0.0
2017-Sep-13 09:01N 33°43' W 118°17'0 0.0
2017-Sep-13 07:49N 33°43' W 118°17'0 0.0
2017-Sep-13 07:25N 33°43' W 118°17'0 0.0
2017-Sep-13 01:55N 33°43' W 118°17'0 0.0
2017-Sep-13 01:19N 33°43' W 118°17'0 0.0
2017-Sep-12 22:31N 33°43' W 118°17'0 0.0
2017-Sep-12 22:01N 33°43' W 118°17'0 0.0
2017-Sep-12 21:55N 33°43' W 118°17'0 0.0
2017-Sep-12 21:07N 33°43' W 118°17'0 0.0
2017-Sep-12 20:55N 33°43' W 118°17'0 0.0
2017-Sep-12 20:25N 33°43' W 118°17'0 0.0
2017-Sep-12 18:19N 33°43' W 118°17'0 0.0
2017-Sep-12 17:55N 33°43' W 118°17'0 0.0
2017-Sep-12 17:13N 33°43' W 118°17'0 0.0
2017-Sep-12 16:55N 33°43' W 118°17'0 0.0
2017-Sep-12 16:13N 33°43' W 118°17'0 0.0
2017-Sep-12 15:55N 33°43' W 118°17'0 0.0
2017-Sep-12 15:25N 33°43' W 118°17'0 0.0
2017-Sep-12 14:55N 33°43' W 118°17'0 0.0
2017-Sep-12 13:31N 33°43' W 118°17'0 0.0
2017-Sep-12 13:25N 33°43' W 118°17'0 0.0
2017-Sep-12 12:49N 33°43' W 118°17'0 0.0
2017-Sep-12 12:13N 33°43' W 118°17'0 0.0
2017-Sep-12 11:55N 33°43' W 118°17'0 0.0
2017-Sep-12 11:19N 33°43' W 118°17'0 0.0
2017-Sep-12 10:55N 33°43' W 118°17'0 0.0
2017-Sep-12 08:31N 33°43' W 118°17'0 0.0
2017-Sep-12 08:01N 33°43' W 118°17'0 0.0
2017-Sep-12 07:46N 33°43' W 118°17'0 0.0
2017-Sep-12 07:25N 33°43' W 118°17'0 0.0
2017-Sep-12 05:40N 33°43' W 118°17'0 0.0
2017-Sep-12 02:34N 33°43' W 118°17'0 0.0
2017-Sep-12 02:16N 33°43' W 118°17'0 0.0
2017-Sep-12 01:58N 33°43' W 118°17'0 0.0
2017-Sep-12 01:28N 33°43' W 118°17'0 0.0
2017-Sep-12 00:49N 33°43' W 118°17'0 0.0
2017-Sep-12 00:25N 33°43' W 118°17'0 0.0
2017-Sep-11 23:49N 33°43' W 118°17'0 0.0
2017-Sep-11 23:25N 33°43' W 118°17'0 0.0
2017-Sep-11 21:13N 33°43' W 118°17'0 0.0
2017-Sep-11 19:07N 33°43' W 118°17'0 0.0
2017-Sep-11 18:49N 33°43' W 118°17'0 0.0
2017-Sep-11 18:25N 33°43' W 118°17'0 0.0
2017-Sep-11 16:43N 33°43' W 118°17'0 0.0
2017-Sep-11 04:04N 33°43' W 118°17'0 0.0
2017-Sep-11 03:52N 33°43' W 118°17'1 1.5
2017-Sep-11 03:30N 33°43' W 118°16'3 6.1
2017-Sep-11 03:00N 33°46' W 118°15'1 2.4
2017-Sep-11 02:30N 33°45' W 118°16'2 5.0
2017-Sep-11 02:00N 33°43' W 118°16'1 1.1
2017-Sep-11 00:56N 33°43' W 118°17'0 0.0
2017-Sep-10 23:50N 33°43' W 118°17'0 0.0
2017-Sep-10 23:20N 33°43' W 118°17'0 0.0
2017-Sep-10 22:56N 33°43' W 118°17'1 1.7
2017-Sep-10 22:28N 33°43' W 118°16'1 1.8
2017-Sep-10 21:53N 33°44' W 118°17'0 0.6
2017-Sep-10 21:07N 33°43' W 118°17'0 0.0
2017-Sep-10 20:49N 33°43' W 118°17'0 0.0
2017-Sep-10 20:25N 33°43' W 118°17'0 0.0
2017-Sep-10 19:49N 33°43' W 118°17'0 0.0
2017-Sep-10 19:19N 33°43' W 118°17'0 0.0
2017-Sep-10 18:55N 33°43' W 118°17'0 0.0
2017-Sep-10 18:25N 33°43' W 118°17'0 0.0
2017-Sep-10 17:55N 33°43' W 118°17'0 0.0
2017-Sep-10 17:25N 33°43' W 118°17'0 0.0
2017-Sep-10 16:37N 33°43' W 118°17'0 0.0
2017-Sep-10 16:13N 33°43' W 118°17'0 0.0
2017-Sep-10 15:55N 33°43' W 118°17'0 0.0
2017-Sep-10 15:19N 33°43' W 118°17'0 0.0
2017-Sep-10 09:34N 33°43' W 118°17'0 0.0
2017-Sep-10 09:25N 33°43' W 118°17'0 0.0
2017-Sep-10 08:58N 33°43' W 118°17'0 0.0
2017-Sep-10 08:28N 33°43' W 118°17'0 0.0
2017-Sep-10 01:55N 33°43' W 118°17'0 0.0
2017-Sep-09 19:25N 33°43' W 118°17'0 0.9
2017-Sep-09 18:56N 33°43' W 118°16'2 5.4
2017-Sep-09 18:30N 33°46' W 118°16'0 0.2
2017-Sep-09 17:57N 33°45' W 118°16'0 0.0
2017-Sep-09 17:27N 33°45' W 118°16'1 2.7
2017-Sep-09 16:59N 33°44' W 118°17'1 0.1
2017-Sep-09 01:00N 33°43' W 118°17'0 0.0
2017-Sep-07 21:30N 33°43' W 118°17'  

Dump ship's entire track history